Indian Springs Village, Alabama
Current Conditions -  °F | °C
As of 10:53 AM on Monday 22 Dec 2014 (Local Time) from KEET Reporting Station
Overcast Overcast  
Wind Chill: 52°   Ceiling: 300
Heat Index: 52°   Visibility: 10mi
Dew Point: 50°   Wind: 5mph
Humidity: 93%   Direction: NA
Pressure: 29.91"   Gusts: NA
Location:  33.3024°N, 86.8026°W
Report Text: KEET 221653Z AUTO VRB04KT 10SM OVC003 11/10 A2991 RMK AO2 SLP126 T01110100
Loading
Personal Weather Stations






























Interactive Weather Map New forecast layout! Learn more

10-Day Weather Forecast

Advertisements
Track Severe Weather on mobile